Time,TemperatureF,DewpointF,PressureIn,WindDirection,WindDirectionDegrees,WindSpeedMPH,WindSpeedGustMPH,Humidity,HourlyPrecipIn,Conditions,Clouds,dailyrainin,SoftwareType,DateUTC
2013-12-20 00:00:00,23.4,19.8,29.89,West,276,0.0,0.0,86,0.00,,,0.00,Wunderground v.1.15,2013-12-20 07:00:00,
2013-12-20 00:05:00,23.6,20.0,29.87,NNE,25,0.0,0.0,86,0.00,,,0.00,Wunderground v.1.15,2013-12-20 07:05:00,
2013-12-20 00:15:00,23.9,20.3,29.88,NNE,25,0.0,0.0,86,0.00,,,0.00,Wunderground v.1.15,2013-12-20 07:15:00,
2013-12-20 00:20:00,24.0,20.4,29.88,NNE,26,0.0,0.0,86,0.00,,,0.00,Wunderground v.1.15,2013-12-20 07:20:00,
2013-12-20 00:30:00,24.2,20.6,29.87,NNE,26,0.0,0.0,86,0.00,,,0.00,Wunderground v.1.15,2013-12-20 07:30:00,
2013-12-20 00:35:00,24.3,20.4,29.87,NNE,25,0.0,0.0,85,0.00,,,0.00,Wunderground v.1.15,2013-12-20 07:35:00,
2013-12-20 00:45:00,24.7,20.8,29.87,NNE,26,0.0,0.0,85,0.00,,,0.00,Wunderground v.1.15,2013-12-20 07:45:00,
2013-12-20 00:50:00,24.8,20.9,29.87,NNE,25,0.0,0.0,85,0.00,,,0.00,Wunderground v.1.15,2013-12-20 07:50:00,
2013-12-20 00:55:00,24.9,21.0,29.87,NNE,26,0.0,0.0,85,0.00,,,0.00,Wunderground v.1.15,2013-12-20 07:55:00,
2013-12-20 01:00:00,25.0,21.1,29.87,NNE,25,0.0,0.0,85,0.00,,,0.00,Wunderground v.1.15,2013-12-20 08:00:00,
2013-12-20 01:05:00,25.0,21.1,29.86,NNE,26,0.0,0.0,85,0.00,,,0.00,Wunderground v.1.15,2013-12-20 08:05:00,
2013-12-20 01:15:00,24.9,21.0,29.85,NNE,26,0.0,0.0,85,0.00,,,0.00,Wunderground v.1.15,2013-12-20 08:15:00,
2013-12-20 01:20:00,24.9,21.0,29.85,NNE,25,0.0,0.0,85,0.00,,,0.00,Wunderground v.1.15,2013-12-20 08:20:00,
2013-12-20 01:25:00,24.8,20.9,29.86,NNE,26,0.0,0.0,85,0.00,,,0.00,Wunderground v.1.15,2013-12-20 08:25:00,
2013-12-20 01:30:00,24.7,20.8,29.86,NNE,25,0.0,0.0,85,0.00,,,0.00,Wunderground v.1.15,2013-12-20 08:30:00,
2013-12-20 01:35:00,24.2,20.1,29.86,NNE,25,0.0,0.0,84,0.00,,,0.00,Wunderground v.1.15,2013-12-20 08:35:00,
2013-12-20 01:45:00,23.5,19.4,29.86,NNE,25,0.0,0.0,84,0.00,,,0.00,Wunderground v.1.15,2013-12-20 08:45:00,
2013-12-20 01:50:00,23.3,19.2,29.88,NNE,25,0.0,0.0,84,0.00,,,0.00,Wunderground v.1.15,2013-12-20 08:50:00,
2013-12-20 01:55:00,23.3,19.5,29.88,NNW,329,0.0,0.0,85,0.00,,,0.00,Wunderground v.1.15,2013-12-20 08:55:00,
2013-12-20 02:00:00,23.3,19.5,29.88,NNW,329,0.0,0.0,85,0.00,,,0.00,Wunderground v.1.15,2013-12-20 09:00:00,
2013-12-20 02:05:00,23.1,19.3,29.87,NNW,329,0.0,0.0,85,0.00,,,0.00,Wunderground v.1.15,2013-12-20 09:05:00,
2013-12-20 02:15:00,23.0,19.2,29.87,NNW,329,0.0,0.0,85,0.00,,,0.00,Wunderground v.1.15,2013-12-20 09:15:00,
2013-12-20 02:20:00,23.0,19.2,29.87,NNW,329,0.0,0.0,85,0.00,,,0.00,Wunderground v.1.15,2013-12-20 09:20:00,
2013-12-20 02:25:00,22.9,19.1,29.87,NNW,330,0.0,0.0,85,0.00,,,0.00,Wunderground v.1.15,2013-12-20 09:25:00,
2013-12-20 02:35:00,22.9,19.3,29.88,NNW,330,0.0,0.0,86,0.00,,,0.00,Wunderground v.1.15,2013-12-20 09:35:00,
2013-12-20 02:40:00,23.0,19.4,29.88,NNW,330,0.0,0.0,86,0.00,,,0.00,Wunderground v.1.15,2013-12-20 09:40:00,
2013-12-20 02:45:00,23.2,19.6,29.88,NNW,330,0.0,0.0,86,0.00,,,0.00,Wunderground v.1.15,2013-12-20 09:45:00,
2013-12-20 02:50:00,23.4,19.8,29.87,NNW,330,0.0,0.0,86,0.00,,,0.00,Wunderground v.1.15,2013-12-20 09:50:00,
2013-12-20 03:00:00,23.8,20.2,29.87,NNW,331,0.0,0.0,86,0.00,,,0.00,Wunderground v.1.15,2013-12-20 10:00:00,
2013-12-20 03:05:00,24.0,20.4,29.89,NNW,331,0.0,0.0,86,0.00,,,0.00,Wunderground v.1.15,2013-12-20 10:05:00,
2013-12-20 03:15:00,24.1,20.5,29.89,NNW,330,0.0,0.0,86,0.00,,,0.00,Wunderground v.1.15,2013-12-20 10:15:00,
2013-12-20 03:25:00,24.1,20.5,29.89,NNW,330,0.0,0.0,86,0.00,,,0.00,Wunderground v.1.15,2013-12-20 10:25:00,
2013-12-20 03:30:00,24.0,20.4,29.88,NNW,330,0.0,0.0,86,0.00,,,0.00,Wunderground v.1.15,2013-12-20 10:30:00,
2013-12-20 03:35:00,24.0,20.4,29.88,NNW,330,0.0,0.0,86,0.00,,,0.00,Wunderground v.1.15,2013-12-20 10:35:00,
2013-12-20 03:40:00,24.0,20.4,29.88,NNW,330,0.0,0.0,86,0.00,,,0.00,Wunderground v.1.15,2013-12-20 10:40:00,
2013-12-20 03:50:00,23.9,20.3,29.88,NNW,330,0.0,0.0,86,0.00,,,0.00,Wunderground v.1.15,2013-12-20 10:50:00,
2013-12-20 03:55:00,23.8,20.2,29.88,NNW,330,0.0,0.0,86,0.00,,,0.00,Wunderground v.1.15,2013-12-20 10:55:00,
2013-12-20 04:00:00,23.7,20.1,29.87,NNW,330,0.0,0.0,86,0.00,,,0.00,Wunderground v.1.15,2013-12-20 11:00:00,
2013-12-20 04:05:00,23.5,19.9,29.90,NNW,330,0.0,0.0,86,0.00,,,0.00,Wunderground v.1.15,2013-12-20 11:05:00,
2013-12-20 04:15:00,23.1,19.5,29.90,NNW,342,0.0,0.0,86,0.00,,,0.00,Wunderground v.1.15,2013-12-20 11:15:00,
2013-12-20 04:20:00,22.8,19.2,29.90,NNW,342,0.0,0.0,86,0.00,,,0.00,Wunderground v.1.15,2013-12-20 11:20:00,
2013-12-20 04:25:00,22.5,18.9,29.91,NNW,342,0.0,0.0,86,0.00,,,0.00,Wunderground v.1.15,2013-12-20 11:25:00,
2013-12-20 04:30:00,22.0,18.2,29.91,NNW,342,0.0,1.0,85,0.00,,,0.00,Wunderground v.1.15,2013-12-20 11:30:00,
2013-12-20 04:35:00,21.5,17.7,29.90,NNW,342,1.0,1.0,85,0.00,,,0.00,Wunderground v.1.15,2013-12-20 11:35:00,
2013-12-20 04:45:00,21.1,17.6,29.91,NNW,342,0.0,0.0,86,0.00,,,0.00,Wunderground v.1.15,2013-12-20 11:45:00,
2013-12-20 04:50:00,21.2,17.7,29.91,NNW,342,0.0,0.0,86,0.00,,,0.00,Wunderground v.1.15,2013-12-20 11:50:00,
2013-12-20 04:55:00,21.3,17.8,29.91,NNW,342,0.0,0.0,86,0.00,,,0.00,Wunderground v.1.15,2013-12-20 11:55:00,
2013-12-20 05:00:00,21.3,17.8,29.91,NNW,342,0.0,0.0,86,0.00,,,0.00,Wunderground v.1.15,2013-12-20 12:00:00,
2013-12-20 05:05:00,21.5,18.0,29.91,NNW,342,0.0,0.0,86,0.00,,,0.00,Wunderground v.1.15,2013-12-20 12:05:00,
2013-12-20 05:15:00,21.7,18.2,29.90,NNW,342,0.0,0.0,86,0.00,,,0.00,Wunderground v.1.15,2013-12-20 12:15:00,
2013-12-20 05:20:00,21.8,18.5,29.90,NNW,342,0.0,0.0,87,0.00,,,0.00,Wunderground v.1.15,2013-12-20 12:20:00,
2013-12-20 05:25:00,21.9,18.4,29.90,NNW,342,0.0,0.0,86,0.00,,,0.00,Wunderground v.1.15,2013-12-20 12:25:00,
2013-12-20 05:30:00,22.0,18.7,29.90,NNW,342,0.0,0.0,87,0.00,,,0.00,Wunderground v.1.15,2013-12-20 12:30:00,
2013-12-20 05:35:00,22.2,18.9,29.90,NNW,344,0.0,0.0,87,0.00,,,0.00,Wunderground v.1.15,2013-12-20 12:35:00,
2013-12-20 05:40:00,22.3,19.0,29.90,NNE,25,0.0,0.0,87,0.00,,,0.00,Wunderground v.1.15,2013-12-20 12:40:00,
2013-12-20 05:50:00,22.5,19.2,29.90,NNE,25,0.0,0.0,87,0.00,,,0.00,Wunderground v.1.15,2013-12-20 12:50:00,
2013-12-20 05:55:00,22.5,19.2,29.90,NNE,25,0.0,0.0,87,0.00,,,0.00,Wunderground v.1.15,2013-12-20 12:55:00,
2013-12-20 06:00:00,22.3,19.0,29.90,NNE,25,0.0,0.0,87,0.00,,,0.00,Wunderground v.1.15,2013-12-20 13:00:00,
2013-12-20 06:05:00,22.1,18.6,29.90,NNE,25,0.0,0.0,86,0.00,,,0.00,Wunderground v.1.15,2013-12-20 13:05:00,
2013-12-20 06:15:00,21.8,18.3,29.91,NNE,25,0.0,0.0,86,0.00,,,0.00,Wunderground v.1.15,2013-12-20 13:15:00,
2013-12-20 06:20:00,21.5,18.0,29.91,NNE,25,0.0,0.0,86,0.00,,,0.00,Wunderground v.1.15,2013-12-20 13:20:00,
2013-12-20 06:25:00,21.4,17.9,29.92,NNE,25,0.0,0.0,86,0.00,,,0.00,Wunderground v.1.15,2013-12-20 13:25:00,
2013-12-20 06:30:00,21.4,17.9,29.91,NNE,25,0.0,0.0,86,0.00,,,0.00,Wunderground v.1.15,2013-12-20 13:30:00,
2013-12-20 06:35:00,21.3,17.8,29.91,NNE,25,0.0,0.0,86,0.00,,,0.00,Wunderground v.1.15,2013-12-20 13:35:00,
2013-12-20 06:45:00,21.3,18.0,29.91,NNE,25,0.0,0.0,87,0.00,,,0.00,Wunderground v.1.15,2013-12-20 13:45:00,
2013-12-20 06:50:00,21.6,18.3,29.90,NNE,25,0.0,0.0,87,0.00,,,0.00,Wunderground v.1.15,2013-12-20 13:50:00,
2013-12-20 06:55:00,21.9,18.6,29.90,NNE,25,0.0,0.0,87,0.00,,,0.00,Wunderground v.1.15,2013-12-20 13:55:00,
2013-12-20 07:00:00,21.9,18.6,29.90,NNE,25,0.0,0.0,87,0.00,,,0.00,Wunderground v.1.15,2013-12-20 14:00:00,
2013-12-20 07:05:00,21.8,18.5,29.91,NNE,25,0.0,0.0,87,0.00,,,0.00,Wunderground v.1.15,2013-12-20 14:05:00,
2013-12-20 07:15:00,21.6,18.3,29.92,NNE,25,0.0,0.0,87,0.00,,,0.00,Wunderground v.1.15,2013-12-20 14:15:00,
2013-12-20 07:20:00,21.5,18.2,29.92,NNE,25,0.0,0.0,87,0.00,,,0.00,Wunderground v.1.15,2013-12-20 14:20:00,
2013-12-20 07:25:00,21.5,18.2,29.92,NNE,25,0.0,0.0,87,0.00,,,0.00,Wunderground v.1.15,2013-12-20 14:25:00,
2013-12-20 07:30:00,21.5,18.2,29.92,NNE,25,0.0,0.0,87,0.00,,,0.00,Wunderground v.1.15,2013-12-20 14:30:00,
2013-12-20 07:35:00,21.6,18.3,29.92,NNE,25,0.0,0.0,87,0.00,,,0.00,Wunderground v.1.15,2013-12-20 14:35:00,
2013-12-20 07:45:00,21.8,18.5,29.92,NNE,25,0.0,0.0,87,0.00,,,0.00,Wunderground v.1.15,2013-12-20 14:45:00,
2013-12-20 07:50:00,21.8,18.5,29.92,NNE,25,0.0,0.0,87,0.00,,,0.00,Wunderground v.1.15,2013-12-20 14:50:00,
2013-12-20 07:55:00,21.8,18.5,29.92,NNE,25,0.0,0.0,87,0.00,,,0.00,Wunderground v.1.15,2013-12-20 14:55:00,
2013-12-20 08:00:00,21.9,18.6,29.92,NNE,25,0.0,0.0,87,0.00,,,0.00,Wunderground v.1.15,2013-12-20 15:00:00,
2013-12-20 08:05:00,22.0,18.7,29.94,NNE,25,0.0,0.0,87,0.00,,,0.00,Wunderground v.1.15,2013-12-20 15:05:00,
2013-12-20 08:15:00,22.3,19.0,29.94,NNE,25,0.0,0.0,87,0.00,,,0.00,Wunderground v.1.15,2013-12-20 15:15:00,
2013-12-20 08:20:00,22.5,19.2,29.94,NNE,25,0.0,0.0,87,0.00,,,0.00,Wunderground v.1.15,2013-12-20 15:20:00,
2013-12-20 08:25:00,22.7,19.4,29.94,NNE,25,0.0,0.0,87,0.00,,,0.00,Wunderground v.1.15,2013-12-20 15:25:00,
2013-12-20 08:30:00,22.9,19.6,29.94,NNE,25,0.0,0.0,87,0.00,,,0.00,Wunderground v.1.15,2013-12-20 15:30:00,
2013-12-20 08:40:00,23.5,20.2,29.93,NNE,25,0.0,0.0,87,0.00,,,0.00,Wunderground v.1.15,2013-12-20 15:40:00,
2013-12-20 08:45:00,23.8,20.5,29.93,NNE,25,0.0,0.0,87,0.00,,,0.00,Wunderground v.1.15,2013-12-20 15:45:00,
2013-12-20 08:50:00,24.3,21.0,29.93,NNE,25,0.0,0.0,87,0.00,,,0.00,Wunderground v.1.15,2013-12-20 15:50:00,
2013-12-20 08:55:00,24.6,21.3,29.93,NNE,25,0.0,0.0,87,0.00,,,0.00,Wunderground v.1.15,2013-12-20 15:55:00,
2013-12-20 09:00:00,24.9,21.6,29.93,NNE,25,0.0,0.0,87,0.00,,,0.00,Wunderground v.1.15,2013-12-20 16:00:00,
2013-12-20 09:05:00,25.1,21.8,29.94,NNE,25,0.0,0.0,87,0.00,,,0.00,Wunderground v.1.15,2013-12-20 16:05:00,
2013-12-20 09:15:00,25.5,22.2,29.94,NNE,25,0.0,0.0,87,0.00,,,0.00,Wunderground v.1.15,2013-12-20 16:15:00,
2013-12-20 09:20:00,25.7,22.4,29.94,NNE,25,0.0,0.0,87,0.00,,,0.00,Wunderground v.1.15,2013-12-20 16:20:00,
2013-12-20 09:25:00,26.1,22.5,29.94,NNE,25,0.0,0.0,86,0.00,,,0.00,Wunderground v.1.15,2013-12-20 16:25:00,
2013-12-20 09:30:00,26.3,22.7,29.94,NNE,25,0.0,0.0,86,0.00,,,0.00,Wunderground v.1.15,2013-12-20 16:30:00,
2013-12-20 09:35:00,26.7,23.1,29.93,NNE,25,0.0,0.0,86,0.00,,,0.00,Wunderground v.1.15,2013-12-20 16:35:00,
2013-12-20 09:40:00,27.0,23.4,29.93,NNE,25,0.0,0.0,86,0.00,,,0.00,Wunderground v.1.15,2013-12-20 16:40:00,
2013-12-20 09:45:00,27.2,23.3,29.94,NNE,25,0.0,0.0,85,0.00,,,0.00,Wunderground v.1.15,2013-12-20 16:45:00,
2013-12-20 09:55:00,27.5,23.6,29.93,NNE,25,0.0,0.0,85,0.00,,,0.00,Wunderground v.1.15,2013-12-20 16:55:00,
2013-12-20 10:00:00,27.9,23.7,29.94,NNE,25,0.0,1.0,84,0.00,,,0.00,Wunderground v.1.15,2013-12-20 17:00:00,
2013-12-20 10:05:00,28.3,24.1,29.94,NNE,25,0.0,1.0,84,0.00,,,0.00,Wunderground v.1.15,2013-12-20 17:05:00,
2013-12-20 10:15:00,29.1,24.6,29.93,NNE,25,0.0,1.0,83,0.00,,,0.00,Wunderground v.1.15,2013-12-20 17:15:00,
2013-12-20 10:25:00,29.9,25.1,29.93,NNE,25,0.0,2.0,82,0.00,,,0.00,Wunderground v.1.15,2013-12-20 17:25:00,
2013-12-20 10:30:00,30.6,25.5,29.92,WNW,290,1.0,2.0,81,0.00,,,0.00,Wunderground v.1.15,2013-12-20 17:30:00,
2013-12-20 10:35:00,29.9,24.2,29.93,WNW,283,3.0,3.0,79,0.00,,,0.00,Wunderground v.1.15,2013-12-20 17:35:00,
2013-12-20 10:40:00,29.4,24.0,29.94,WNW,285,3.0,3.0,80,0.00,,,0.00,Wunderground v.1.15,2013-12-20 17:40:00,
2013-12-20 10:45:00,29.3,24.2,29.93,WNW,291,3.0,3.0,81,0.00,,,0.00,Wunderground v.1.15,2013-12-20 17:45:00,
2013-12-20 10:50:00,29.2,24.1,29.93,WNW,291,3.0,3.0,81,0.00,,,0.00,Wunderground v.1.15,2013-12-20 17:50:00,
2013-12-20 11:00:00,29.5,24.4,29.93,WNW,294,3.0,5.0,81,0.00,,,0.00,Wunderground v.1.15,2013-12-20 18:00:00,
2013-12-20 11:05:00,29.7,24.6,29.91,West,279,3.0,5.0,81,0.00,,,0.00,Wunderground v.1.15,2013-12-20 18:05:00,
2013-12-20 11:15:00,29.7,24.6,29.91,WSW,249,3.0,3.0,81,0.00,,,0.00,Wunderground v.1.15,2013-12-20 18:15:00,
2013-12-20 11:20:00,29.7,24.6,29.91,WSW,252,3.0,3.0,81,0.00,,,0.00,Wunderground v.1.15,2013-12-20 18:20:00,
2013-12-20 11:25:00,29.7,24.6,29.91,WSW,256,2.0,3.0,81,0.00,,,0.00,Wunderground v.1.15,2013-12-20 18:25:00,
2013-12-20 11:30:00,29.8,24.7,29.91,WSW,256,3.0,3.0,81,0.00,,,0.00,Wunderground v.1.15,2013-12-20 18:30:00,
2013-12-20 11:40:00,30.1,25.0,29.90,West,259,3.0,3.0,81,0.00,,,0.00,Wunderground v.1.15,2013-12-20 18:40:00,
2013-12-20 11:45:00,30.3,24.9,29.90,West,262,3.0,3.0,80,0.00,,,0.00,Wunderground v.1.15,2013-12-20 18:45:00,
2013-12-20 11:50:00,30.4,25.0,29.90,WNW,284,3.0,3.0,80,0.00,,,0.00,Wunderground v.1.15,2013-12-20 18:50:00,
2013-12-20 11:55:00,30.5,25.1,29.90,West,281,3.0,3.0,80,0.00,,,0.00,Wunderground v.1.15,2013-12-20 18:55:00,
2013-12-20 12:00:00,30.6,25.2,29.90,WNW,294,3.0,3.0,80,0.00,,,0.00,Wunderground v.1.15,2013-12-20 19:00:00,
2013-12-20 12:05:00,30.8,25.4,29.88,WNW,292,3.0,4.0,80,0.00,,,0.00,Wunderground v.1.15,2013-12-20 19:05:00,
2013-12-20 12:15:00,30.4,24.7,29.89,West,273,3.0,5.0,79,0.00,,,0.00,Wunderground v.1.15,2013-12-20 19:15:00,
2013-12-20 12:18:00,30.3,24.9,29.89,West,270,3.0,-999.0,80,0.00,,,0.00,Wunderground v.1.15,2013-12-20 19:18:00,
2013-12-20 12:20:00,30.3,24.9,29.89,West,274,3.0,3.0,80,0.00,,,0.00,Wunderground v.1.15,2013-12-20 19:20:00,
2013-12-20 12:23:00,30.3,24.9,29.89,West,270,3.0,-999.0,80,0.00,,,0.00,Wunderground v.1.15,2013-12-20 19:23:00,
2013-12-20 12:25:00,30.4,25.0,29.89,West,281,3.0,3.0,80,0.00,,,0.00,Wunderground v.1.15,2013-12-20 19:25:00,
2013-12-20 12:28:00,30.5,25.1,29.88,WNW,293,2.0,-999.0,80,0.00,,,0.00,Wunderground v.1.15,2013-12-20 19:28:00,
2013-12-20 12:30:00,30.4,25.0,29.88,WNW,286,3.0,3.0,80,0.00,,,0.00,Wunderground v.1.15,2013-12-20 19:30:00,
2013-12-20 12:33:00,30.5,25.1,29.88,WNW,293,2.0,-999.0,80,0.00,,,0.00,Wunderground v.1.15,2013-12-20 19:33:00,
2013-12-20 12:35:00,30.6,25.2,29.87,WNW,294,3.0,3.0,80,0.00,,,0.00,Wunderground v.1.15,2013-12-20 19:35:00,
2013-12-20 12:38:00,31.4,25.6,29.87,West,270,2.0,-999.0,79,0.00,,,0.00,Wunderground v.1.15,2013-12-20 19:38:00,
2013-12-20 12:40:00,31.3,25.8,29.87,West,279,2.0,3.0,80,0.00,,,0.00,Wunderground v.1.15,2013-12-20 19:40:00,
2013-12-20 12:50:00,32.0,26.2,29.87,WNW,286,2.0,4.0,79,0.00,,,0.00,Wunderground v.1.15,2013-12-20 19:50:00,
2013-12-20 12:55:00,32.3,26.2,29.86,WNW,286,2.0,4.0,78,0.00,,,0.00,Wunderground v.1.15,2013-12-20 19:55:00,
2013-12-20 13:00:00,32.9,26.8,29.85,WNW,287,1.0,1.0,78,0.00,,,0.00,Wunderground v.1.15,2013-12-20 20:00:00,
2013-12-20 13:05:00,33.2,26.8,29.86,WNW,288,1.0,1.0,77,0.00,,,0.00,Wunderground v.1.15,2013-12-20 20:05:00,
2013-12-20 13:15:00,33.4,27.0,29.86,WNW,288,0.0,1.0,77,0.00,,,0.00,Wunderground v.1.15,2013-12-20 20:15:00,
2013-12-20 13:20:00,33.7,27.3,29.86,WNW,288,0.0,2.0,77,0.00,,,0.00,Wunderground v.1.15,2013-12-20 20:20:00,
2013-12-20 13:25:00,34.0,27.5,29.85,WNW,287,0.0,2.0,77,0.00,,,0.00,Wunderground v.1.15,2013-12-20 20:25:00,
2013-12-20 13:30:00,34.4,27.6,29.85,WNW,288,0.0,3.0,76,0.00,,,0.00,Wunderground v.1.15,2013-12-20 20:30:00,
2013-12-20 13:35:00,34.5,27.4,29.84,WNW,287,1.0,3.0,75,0.00,,,0.00,Wunderground v.1.15,2013-12-20 20:35:00,
2013-12-20 13:40:00,34.6,27.5,29.85,WNW,283,2.0,2.0,75,0.00,,,0.00,Wunderground v.1.15,2013-12-20 20:40:00,
2013-12-20 13:50:00,34.7,27.3,29.84,West,280,1.0,2.0,74,0.00,,,0.00,Wunderground v.1.15,2013-12-20 20:50:00,
2013-12-20 13:55:00,34.7,27.3,29.84,WNW,288,2.0,2.0,74,0.00,,,0.00,Wunderground v.1.15,2013-12-20 20:55:00,
2013-12-20 14:00:00,34.9,27.5,29.84,WNW,287,1.0,1.0,74,0.00,,,0.00,Wunderground v.1.15,2013-12-20 21:00:00,
2013-12-20 14:05:00,35.5,28.0,29.83,WNW,288,0.0,1.0,74,0.00,,,0.00,Wunderground v.1.15,2013-12-20 21:05:00,
2013-12-20 14:15:00,36.6,28.4,29.83,WNW,291,0.0,1.0,72,0.00,,,0.00,Wunderground v.1.15,2013-12-20 21:15:00,
2013-12-20 14:25:00,37.4,28.9,29.82,WNW,293,0.0,0.0,71,0.00,,,0.00,Wunderground v.1.15,2013-12-20 21:25:00,
2013-12-20 14:30:00,37.3,28.1,29.82,WNW,294,0.0,0.0,69,0.00,,,0.00,Wunderground v.1.15,2013-12-20 21:30:00,
2013-12-20 14:35:00,37.1,27.9,29.82,WNW,296,0.0,0.0,69,0.00,,,0.00,Wunderground v.1.15,2013-12-20 21:35:00,
2013-12-20 14:40:00,37.1,27.9,29.82,WNW,298,0.0,0.0,69,0.00,,,0.00,Wunderground v.1.15,2013-12-20 21:40:00,
2013-12-20 14:45:00,37.2,28.3,29.83,NNE,14,0.0,0.0,70,0.00,,,0.00,Wunderground v.1.15,2013-12-20 21:45:00,
2013-12-20 14:50:00,36.8,27.9,29.83,NNE,15,0.0,2.0,70,0.00,,,0.00,Wunderground v.1.15,2013-12-20 21:50:00,
2013-12-20 14:55:00,36.5,27.6,29.83,NNE,13,1.0,2.0,70,0.00,,,0.00,Wunderground v.1.15,2013-12-20 21:55:00,
2013-12-20 15:05:00,35.7,27.6,29.83,NNE,19,1.0,3.0,72,0.00,,,0.00,Wunderground v.1.15,2013-12-20 22:05:00,
2013-12-20 15:15:00,35.6,27.8,29.83,North,11,1.0,1.0,73,0.00,,,0.00,Wunderground v.1.15,2013-12-20 22:15:00,
2013-12-20 15:20:00,35.7,27.9,29.83,NNE,12,0.0,0.0,73,0.00,,,0.00,Wunderground v.1.15,2013-12-20 22:20:00,
2013-12-20 15:25:00,35.7,27.9,29.83,North,11,0.0,0.0,73,0.00,,,0.00,Wunderground v.1.15,2013-12-20 22:25:00,
2013-12-20 15:30:00,35.9,28.1,29.84,NNE,12,0.0,0.0,73,0.00,,,0.00,Wunderground v.1.15,2013-12-20 22:30:00,
2013-12-20 15:40:00,35.8,27.7,29.83,NNE,19,0.0,2.0,72,0.00,,,0.00,Wunderground v.1.15,2013-12-20 22:40:00,
2013-12-20 15:45:00,35.6,27.8,29.83,NNE,13,1.0,2.0,73,0.00,,,0.00,Wunderground v.1.15,2013-12-20 22:45:00,
2013-12-20 15:50:00,35.2,27.4,29.84,NNE,16,1.0,1.0,73,0.00,,,0.00,Wunderground v.1.15,2013-12-20 22:50:00,
2013-12-20 15:55:00,35.1,27.6,29.84,NNE,17,0.0,1.0,74,0.00,,,0.00,Wunderground v.1.15,2013-12-20 22:55:00,
2013-12-20 16:00:00,34.9,27.5,29.85,NNE,17,0.0,0.0,74,0.00,,,0.00,Wunderground v.1.15,2013-12-20 23:00:00,
2013-12-20 16:05:00,34.4,27.0,29.87,NNE,17,0.0,0.0,74,0.00,,,0.00,Wunderground v.1.15,2013-12-20 23:05:00,
2013-12-20 16:15:00,34.4,27.0,29.86,NNE,17,0.0,0.0,74,0.00,,,0.00,Wunderground v.1.15,2013-12-20 23:15:00,
2013-12-20 16:20:00,34.4,27.0,29.86,NNE,17,0.0,0.0,74,0.00,,,0.00,Wunderground v.1.15,2013-12-20 23:20:00,
2013-12-20 16:25:00,34.1,26.7,29.86,NNE,17,0.0,0.0,74,0.00,,,0.00,Wunderground v.1.15,2013-12-20 23:25:00,
2013-12-20 16:30:00,33.3,25.9,29.86,NNE,17,0.0,0.0,74,0.00,,,0.00,Wunderground v.1.15,2013-12-20 23:30:00,
2013-12-20 16:35:00,32.6,25.6,29.86,NNE,17,0.0,0.0,75,0.00,,,0.00,Wunderground v.1.15,2013-12-20 23:35:00,
2013-12-20 16:45:00,31.6,25.2,29.87,NNE,17,0.0,0.0,77,0.00,,,0.00,Wunderground v.1.15,2013-12-20 23:45:00,
2013-12-20 16:50:00,31.3,25.2,29.87,NNE,17,0.0,0.0,78,0.00,,,0.00,Wunderground v.1.15,2013-12-20 23:50:00,
2013-12-20 16:55:00,31.0,24.9,29.87,NNE,17,0.0,0.0,78,0.00,,,0.00,Wunderground v.1.15,2013-12-20 23:55:00,
2013-12-20 17:00:00,30.7,25.0,29.88,NNE,17,0.0,0.0,79,0.00,,,0.00,Wunderground v.1.15,2013-12-21 00:00:00,
2013-12-20 17:05:00,30.4,24.7,29.88,NNE,17,0.0,0.0,79,0.00,,,0.00,Wunderground v.1.15,2013-12-21 00:05:00,
2013-12-20 17:15:00,29.5,23.8,29.89,NNE,17,0.0,0.0,79,0.00,,,0.00,Wunderground v.1.15,2013-12-21 00:15:00,
2013-12-20 17:20:00,28.5,22.5,29.90,NNE,17,0.0,0.0,78,0.00,,,0.00,Wunderground v.1.15,2013-12-21 00:20:00,
2013-12-20 17:25:00,27.7,22.0,29.90,NNE,17,0.0,0.0,79,0.00,,,0.00,Wunderground v.1.15,2013-12-21 00:25:00,
2013-12-20 17:30:00,26.9,21.3,29.91,NNE,17,0.0,0.0,79,0.00,,,0.00,Wunderground v.1.15,2013-12-21 00:30:00,
2013-12-20 17:35:00,26.5,21.5,29.91,NNE,17,0.0,0.0,81,0.00,,,0.00,Wunderground v.1.15,2013-12-21 00:35:00,
2013-12-20 17:40:00,26.3,21.6,29.91,NNE,17,0.0,0.0,82,0.00,,,0.00,Wunderground v.1.15,2013-12-21 00:40:00,
2013-12-20 17:45:00,26.1,21.4,29.92,NNE,17,0.0,0.0,82,0.00,,,0.00,Wunderground v.1.15,2013-12-21 00:45:00,
2013-12-20 17:55:00,25.5,21.1,29.92,NW,311,0.0,2.0,83,0.00,,,0.00,Wunderground v.1.15,2013-12-21 00:55:00,
2013-12-20 18:05:00,24.7,20.6,29.94,NW,311,2.0,2.0,84,0.00,,,0.00,Wunderground v.1.15,2013-12-21 01:05:00,
2013-12-20 18:15:00,24.6,20.5,29.94,NW,311,0.0,1.0,84,0.00,,,0.00,Wunderground v.1.15,2013-12-21 01:15:00,
2013-12-20 18:20:00,24.7,20.8,29.94,NW,312,0.0,0.0,85,0.00,,,0.00,Wunderground v.1.15,2013-12-21 01:20:00,
2013-12-20 18:30:00,25.1,21.2,29.94,NW,311,0.0,0.0,85,0.00,,,0.00,Wunderground v.1.15,2013-12-21 01:30:00,
2013-12-20 18:35:00,25.2,21.3,29.94,NW,311,0.0,0.0,85,0.00,,,0.00,Wunderground v.1.15,2013-12-21 01:35:00,
2013-12-20 18:40:00,25.2,21.3,29.94,NW,311,0.0,0.0,85,0.00,,,0.00,Wunderground v.1.15,2013-12-21 01:40:00,
2013-12-20 18:45:00,25.1,21.2,29.93,NW,312,0.0,0.0,85,0.00,,,0.00,Wunderground v.1.15,2013-12-21 01:45:00,
2013-12-20 18:50:00,25.3,21.7,29.93,NW,311,0.0,0.0,86,0.00,,,0.00,Wunderground v.1.15,2013-12-21 01:50:00,
2013-12-20 18:55:00,25.4,21.8,29.93,NW,312,0.0,0.0,86,0.00,,,0.00,Wunderground v.1.15,2013-12-21 01:55:00,
2013-12-20 19:05:00,25.6,22.0,29.92,NW,313,0.0,0.0,86,0.00,,,0.00,Wunderground v.1.15,2013-12-21 02:05:00,
2013-12-20 19:15:00,25.9,22.3,29.92,NW,313,0.0,0.0,86,0.00,,,0.00,Wunderground v.1.15,2013-12-21 02:15:00,
2013-12-20 19:20:00,26.0,22.4,29.92,NW,313,0.0,0.0,86,0.00,,,0.00,Wunderground v.1.15,2013-12-21 02:20:00,
2013-12-20 19:25:00,26.1,22.5,29.92,NW,314,0.0,0.0,86,0.00,,,0.00,Wunderground v.1.15,2013-12-21 02:25:00,
2013-12-20 19:35:00,26.0,22.4,29.92,NW,314,0.0,0.0,86,0.00,,,0.00,Wunderground v.1.15,2013-12-21 02:35:00,
2013-12-20 19:40:00,25.8,22.2,29.92,NW,314,0.0,0.0,86,0.00,,,0.00,Wunderground v.1.15,2013-12-21 02:40:00,
2013-12-20 19:45:00,25.7,22.1,29.92,NW,314,0.0,0.0,86,0.00,,,0.00,Wunderground v.1.15,2013-12-21 02:45:00,
2013-12-20 19:50:00,25.7,22.1,29.92,NW,314,0.0,0.0,86,0.00,,,0.00,Wunderground v.1.15,2013-12-21 02:50:00,
2013-12-20 19:55:00,25.7,22.1,29.92,NW,314,0.0,0.0,86,0.00,,,0.00,Wunderground v.1.15,2013-12-21 02:55:00,
2013-12-20 20:05:00,25.7,22.1,29.91,NW,314,0.0,0.0,86,0.00,,,0.00,Wunderground v.1.15,2013-12-21 03:05:00,
2013-12-20 20:15:00,25.8,22.2,29.91,NW,314,0.0,0.0,86,0.00,,,0.00,Wunderground v.1.15,2013-12-21 03:15:00,
2013-12-20 20:20:00,25.7,22.1,29.91,NW,314,0.0,0.0,86,0.00,,,0.00,Wunderground v.1.15,2013-12-21 03:20:00,
2013-12-20 20:25:00,25.8,22.2,29.91,NW,314,0.0,0.0,86,0.00,,,0.00,Wunderground v.1.15,2013-12-21 03:25:00,
2013-12-20 20:35:00,25.8,22.2,29.91,NW,314,0.0,0.0,86,0.00,,,0.00,Wunderground v.1.15,2013-12-21 03:35:00,
2013-12-20 20:40:00,25.7,22.1,29.91,NW,314,0.0,0.0,86,0.00,,,0.00,Wunderground v.1.15,2013-12-21 03:40:00,
2013-12-20 20:45:00,25.6,22.0,29.91,NW,314,0.0,0.0,86,0.00,,,0.00,Wunderground v.1.15,2013-12-21 03:45:00,
2013-12-20 20:50:00,25.2,21.6,29.91,NW,314,0.0,0.0,86,0.00,,,0.00,Wunderground v.1.15,2013-12-21 03:50:00,
2013-12-20 20:55:00,24.7,21.1,29.91,NW,314,0.0,0.0,86,0.00,,,0.00,Wunderground v.1.15,2013-12-21 03:55:00,
2013-12-20 21:00:00,24.2,20.6,29.92,NW,314,0.0,0.0,86,0.00,,,0.00,Wunderground v.1.15,2013-12-21 04:00:00,
2013-12-20 21:15:00,23.1,19.5,29.91,NW,314,0.0,0.0,86,0.00,,,0.00,Wunderground v.1.15,2013-12-21 04:15:00,
2013-12-20 21:25:00,22.6,19.0,29.91,NW,314,0.0,0.0,86,0.00,,,0.00,Wunderground v.1.15,2013-12-21 04:25:00,
2013-12-20 21:30:00,22.3,18.7,29.91,NW,314,0.0,0.0,86,0.00,,,0.00,Wunderground v.1.15,2013-12-21 04:30:00,
2013-12-20 21:35:00,22.0,18.5,29.91,NW,314,0.0,0.0,86,0.00,,,0.00,Wunderground v.1.15,2013-12-21 04:35:00,
2013-12-20 21:40:00,21.8,18.3,29.91,NW,314,0.0,0.0,86,0.00,,,0.00,Wunderground v.1.15,2013-12-21 04:40:00,
2013-12-20 21:45:00,21.5,18.0,29.91,NW,314,0.0,0.0,86,0.00,,,0.00,Wunderground v.1.15,2013-12-21 04:45:00,
2013-12-20 21:55:00,20.8,17.0,29.92,NW,314,0.0,0.0,85,0.00,,,0.00,Wunderground v.1.15,2013-12-21 04:55:00,
2013-12-20 22:00:00,20.3,16.5,29.92,NW,314,0.0,0.0,85,0.00,,,0.00,Wunderground v.1.15,2013-12-21 05:00:00,
2013-12-20 22:05:00,19.6,15.8,29.92,NW,314,0.0,0.0,85,0.00,,,0.00,Wunderground v.1.15,2013-12-21 05:05:00,
2013-12-20 22:15:00,18.8,15.0,29.92,NW,314,0.0,0.0,85,0.00,,,0.00,Wunderground v.1.15,2013-12-21 05:15:00,
2013-12-20 22:20:00,18.7,14.9,29.92,NW,314,0.0,0.0,85,0.00,,,0.00,Wunderground v.1.15,2013-12-21 05:20:00,
2013-12-20 22:25:00,18.2,14.4,29.92,NW,314,0.0,0.0,85,0.00,,,0.00,Wunderground v.1.15,2013-12-21 05:25:00,
2013-12-20 22:30:00,17.8,14.1,29.92,NW,314,0.0,0.0,85,0.00,,,0.00,Wunderground v.1.15,2013-12-21 05:30:00,
2013-12-20 22:35:00,17.6,13.9,29.92,NW,314,0.0,0.0,85,0.00,,,0.00,Wunderground v.1.15,2013-12-21 05:35:00,
2013-12-20 22:40:00,17.5,13.8,29.92,NW,314,0.0,0.0,85,0.00,,,0.00,Wunderground v.1.15,2013-12-21 05:40:00,
2013-12-20 22:45:00,17.5,13.8,29.92,NW,314,0.0,0.0,85,0.00,,,0.00,Wunderground v.1.15,2013-12-21 05:45:00,
2013-12-20 22:50:00,17.5,13.8,29.92,NW,314,0.0,0.0,85,0.00,,,0.00,Wunderground v.1.15,2013-12-21 05:50:00,
2013-12-20 22:55:00,17.4,13.7,29.93,NW,314,0.0,0.0,85,0.00,,,0.00,Wunderground v.1.15,2013-12-21 05:55:00,
2013-12-20 23:00:00,17.1,13.6,29.93,NW,314,0.0,0.0,86,0.00,,,0.00,Wunderground v.1.15,2013-12-21 06:00:00,
2013-12-20 23:10:00,17.0,13.5,29.91,NW,314,0.0,0.0,86,0.00,,,0.00,Wunderground v.1.15,2013-12-21 06:10:00,
2013-12-20 23:15:00,17.0,13.5,29.91,NW,314,0.0,0.0,86,0.00,,,0.00,Wunderground v.1.15,2013-12-21 06:15:00,
2013-12-20 23:20:00,17.0,13.5,29.91,NW,314,0.0,0.0,86,0.00,,,0.00,Wunderground v.1.15,2013-12-21 06:20:00,
2013-12-20 23:25:00,17.2,13.7,29.91,NW,314,0.0,0.0,86,0.00,,,0.00,Wunderground v.1.15,2013-12-21 06:25:00,
2013-12-20 23:30:00,17.4,13.9,29.92,NW,314,0.0,0.0,86,0.00,,,0.00,Wunderground v.1.15,2013-12-21 06:30:00,
2013-12-20 23:40:00,17.2,13.7,29.91,NW,314,0.0,0.0,86,0.00,,,0.00,Wunderground v.1.15,2013-12-21 06:40:00,
2013-12-20 23:45:00,17.3,13.8,29.91,NW,314,0.0,0.0,86,0.00,,,0.00,Wunderground v.1.15,2013-12-21 06:45:00,
2013-12-20 23:50:00,17.4,13.9,29.91,NW,314,0.0,0.0,86,0.00,,,0.00,Wunderground v.1.15,2013-12-21 06:50:00,
2013-12-20 23:55:00,17.6,14.1,29.90,NW,314,0.0,0.0,86,0.00,,,0.00,Wunderground v.1.15,2013-12-21 06:55:00,